sensor_id;sensor_type;location;lat;lon;timestamp;P1;durP1;ratioP1;P2;durP2;ratioP2
2039;SDS011;1025;42.686;23.350;2023-02-28T00:00:22;21.30;;;15.17;;
2039;SDS011;1025;42.686;23.350;2023-02-28T00:02:49;16.03;;;13.80;;
2039;SDS011;1025;42.686;23.350;2023-02-28T00:05:18;17.23;;;14.70;;
2039;SDS011;1025;42.686;23.350;2023-02-28T00:07:45;18.60;;;14.30;;
2039;SDS011;1025;42.686;23.350;2023-02-28T00:10:13;17.30;;;15.40;;
2039;SDS011;1025;42.686;23.350;2023-02-28T00:12:40;17.70;;;15.80;;
2039;SDS011;1025;42.686;23.350;2023-02-28T00:15:07;15.77;;;13.43;;
2039;SDS011;1025;42.686;23.350;2023-02-28T00:17:34;16.83;;;14.03;;
2039;SDS011;1025;42.686;23.350;2023-02-28T00:20:00;15.20;;;12.80;;
2039;SDS011;1025;42.686;23.350;2023-02-28T00:22:39;16.17;;;12.73;;
2039;SDS011;1025;42.686;23.350;2023-02-28T00:25:06;17.70;;;14.37;;
2039;SDS011;1025;42.686;23.350;2023-02-28T00:27:33;15.10;;;13.50;;
2039;SDS011;1025;42.686;23.350;2023-02-28T00:30:00;18.20;;;14.07;;
2039;SDS011;1025;42.686;23.350;2023-02-28T00:32:26;13.30;;;11.23;;
2039;SDS011;1025;42.686;23.350;2023-02-28T00:34:53;15.13;;;12.23;;
2039;SDS011;1025;42.686;23.350;2023-02-28T00:37:20;17.60;;;14.53;;
2039;SDS011;1025;42.686;23.350;2023-02-28T00:39:48;16.17;;;12.67;;
2039;SDS011;1025;42.686;23.350;2023-02-28T00:42:15;17.10;;;14.10;;
2039;SDS011;1025;42.686;23.350;2023-02-28T00:44:41;18.27;;;13.10;;
2039;SDS011;1025;42.686;23.350;2023-02-28T00:47:08;18.50;;;15.73;;
2039;SDS011;1025;42.686;23.350;2023-02-28T00:49:35;17.77;;;14.50;;
2039;SDS011;1025;42.686;23.350;2023-02-28T00:52:02;19.50;;;16.53;;
2039;SDS011;1025;42.686;23.350;2023-02-28T00:54:28;20.80;;;15.30;;
2039;SDS011;1025;42.686;23.350;2023-02-28T00:56:56;18.37;;;14.40;;
2039;SDS011;1025;42.686;23.350;2023-02-28T00:59:23;24.50;;;17.50;;
2039;SDS011;1025;42.686;23.350;2023-02-28T01:01:49;19.73;;;17.27;;
2039;SDS011;1025;42.686;23.350;2023-02-28T01:04:16;21.30;;;16.17;;
2039;SDS011;1025;42.686;23.350;2023-02-28T01:06:43;17.90;;;15.27;;
2039;SDS011;1025;42.686;23.350;2023-02-28T01:09:09;21.60;;;17.03;;
2039;SDS011;1025;42.686;23.350;2023-02-28T01:11:37;17.87;;;15.27;;
2039;SDS011;1025;42.686;23.350;2023-02-28T01:14:05;21.50;;;16.80;;
2039;SDS011;1025;42.686;23.350;2023-02-28T01:16:32;21.40;;;16.17;;
2039;SDS011;1025;42.686;23.350;2023-02-28T01:18:58;21.83;;;18.20;;
2039;SDS011;1025;42.686;23.350;2023-02-28T01:21:25;22.50;;;15.73;;
2039;SDS011;1025;42.686;23.350;2023-02-28T01:23:51;20.87;;;15.30;;
2039;SDS011;1025;42.686;23.350;2023-02-28T01:26:18;19.90;;;15.40;;
2039;SDS011;1025;42.686;23.350;2023-02-28T01:28:46;20.60;;;16.40;;
2039;SDS011;1025;42.686;23.350;2023-02-28T01:31:16;20.37;;;15.77;;
2039;SDS011;1025;42.686;23.350;2023-02-28T01:33:44;19.70;;;17.40;;
2039;SDS011;1025;42.686;23.350;2023-02-28T01:36:11;23.93;;;16.97;;
2039;SDS011;1025;42.686;23.350;2023-02-28T01:38:38;17.10;;;15.10;;
2039;SDS011;1025;42.686;23.350;2023-02-28T01:41:06;20.13;;;16.20;;
2039;SDS011;1025;42.686;23.350;2023-02-28T01:43:52;19.93;;;15.57;;
2039;SDS011;1025;42.686;23.350;2023-02-28T01:46:20;20.97;;;15.90;;
2039;SDS011;1025;42.686;23.350;2023-02-28T01:48:49;18.07;;;15.70;;
2039;SDS011;1025;42.686;23.350;2023-02-28T01:51:18;18.60;;;15.90;;
2039;SDS011;1025;42.686;23.350;2023-02-28T01:53:46;22.43;;;17.93;;
2039;SDS011;1025;42.686;23.350;2023-02-28T01:56:13;20.33;;;14.97;;
2039;SDS011;1025;42.686;23.350;2023-02-28T01:58:45;21.17;;;16.50;;
2039;SDS011;1025;42.686;23.350;2023-02-28T02:01:12;19.67;;;15.70;;
2039;SDS011;1025;42.686;23.350;2023-02-28T02:03:48;18.13;;;16.33;;
2039;SDS011;1025;42.686;23.350;2023-02-28T02:06:20;19.67;;;15.63;;
2039;SDS011;1025;42.686;23.350;2023-02-28T02:08:47;22.77;;;17.37;;
2039;SDS011;1025;42.686;23.350;2023-02-28T02:11:13;24.43;;;18.93;;
2039;SDS011;1025;42.686;23.350;2023-02-28T02:13:48;25.60;;;17.07;;
2039;SDS011;1025;42.686;23.350;2023-02-28T02:16:23;25.17;;;19.93;;
2039;SDS011;1025;42.686;23.350;2023-02-28T02:18:54;25.40;;;17.90;;
2039;SDS011;1025;42.686;23.350;2023-02-28T02:27:02;25.33;;;17.97;;
2039;SDS011;1025;42.686;23.350;2023-02-28T02:29:39;22.90;;;17.13;;
2039;SDS011;1025;42.686;23.350;2023-02-28T02:35:00;23.60;;;18.07;;
2039;SDS011;1025;42.686;23.350;2023-02-28T02:37:34;22.83;;;17.17;;
2039;SDS011;1025;42.686;23.350;2023-02-28T02:40:04;26.23;;;19.30;;
2039;SDS011;1025;42.686;23.350;2023-02-28T02:42:36;27.90;;;19.73;;
2039;SDS011;1025;42.686;23.350;2023-02-28T02:45:06;30.27;;;21.77;;
2039;SDS011;1025;42.686;23.350;2023-02-28T02:47:35;24.40;;;19.50;;
2039;SDS011;1025;42.686;23.350;2023-02-28T02:50:04;29.07;;;21.53;;
2039;SDS011;1025;42.686;23.350;2023-02-28T02:52:33;29.00;;;20.17;;
2039;SDS011;1025;42.686;23.350;2023-02-28T02:55:00;31.00;;;20.10;;
2039;SDS011;1025;42.686;23.350;2023-02-28T02:57:30;27.03;;;20.00;;
2039;SDS011;1025;42.686;23.350;2023-02-28T02:59:59;33.03;;;22.47;;
2039;SDS011;1025;42.686;23.350;2023-02-28T03:02:26;30.10;;;19.53;;
2039;SDS011;1025;42.686;23.350;2023-02-28T03:04:59;26.07;;;19.87;;
2039;SDS011;1025;42.686;23.350;2023-02-28T03:07:28;31.07;;;21.33;;
2039;SDS011;1025;42.686;23.350;2023-02-28T03:09:55;33.03;;;20.40;;
2039;SDS011;1025;42.686;23.350;2023-02-28T03:12:23;29.10;;;20.57;;
2039;SDS011;1025;42.686;23.350;2023-02-28T03:14:56;32.97;;;21.97;;
2039;SDS011;1025;42.686;23.350;2023-02-28T03:17:36;28.60;;;20.67;;
2039;SDS011;1025;42.686;23.350;2023-02-28T03:20:07;28.50;;;19.20;;
2039;SDS011;1025;42.686;23.350;2023-02-28T03:25:25;29.47;;;21.67;;
2039;SDS011;1025;42.686;23.350;2023-02-28T03:27:55;31.80;;;21.43;;
2039;SDS011;1025;42.686;23.350;2023-02-28T03:30:27;28.33;;;19.70;;
2039;SDS011;1025;42.686;23.350;2023-02-28T03:32:57;35.33;;;22.03;;
2039;SDS011;1025;42.686;23.350;2023-02-28T03:35:25;37.23;;;20.93;;
2039;SDS011;1025;42.686;23.350;2023-02-28T03:37:55;31.77;;;21.77;;
2039;SDS011;1025;42.686;23.350;2023-02-28T03:40:27;32.40;;;23.63;;
2039;SDS011;1025;42.686;23.350;2023-02-28T03:42:58;31.97;;;21.53;;
2039;SDS011;1025;42.686;23.350;2023-02-28T03:45:26;32.57;;;22.97;;
2039;SDS011;1025;42.686;23.350;2023-02-28T03:47:55;38.73;;;23.77;;
2039;SDS011;1025;42.686;23.350;2023-02-28T03:50:24;34.20;;;23.67;;
2039;SDS011;1025;42.686;23.350;2023-02-28T03:52:53;30.43;;;23.00;;
2039;SDS011;1025;42.686;23.350;2023-02-28T03:55:27;39.40;;;24.10;;
2039;SDS011;1025;42.686;23.350;2023-02-28T03:57:56;33.40;;;22.00;;
2039;SDS011;1025;42.686;23.350;2023-02-28T04:00:26;35.10;;;22.80;;
2039;SDS011;1025;42.686;23.350;2023-02-28T04:02:54;32.90;;;23.90;;
2039;SDS011;1025;42.686;23.350;2023-02-28T04:05:21;35.27;;;23.93;;
2039;SDS011;1025;42.686;23.350;2023-02-28T04:07:48;63.30;;;24.57;;
2039;SDS011;1025;42.686;23.350;2023-02-28T04:10:15;34.57;;;22.93;;
2039;SDS011;1025;42.686;23.350;2023-02-28T04:12:43;38.77;;;23.07;;
2039;SDS011;1025;42.686;23.350;2023-02-28T04:15:10;35.43;;;23.40;;
2039;SDS011;1025;42.686;23.350;2023-02-28T04:17:37;43.23;;;23.77;;
2039;SDS011;1025;42.686;23.350;2023-02-28T04:20:04;35.10;;;20.73;;
2039;SDS011;1025;42.686;23.350;2023-02-28T04:22:34;34.73;;;20.37;;
2039;SDS011;1025;42.686;23.350;2023-02-28T04:25:01;39.07;;;24.07;;
2039;SDS011;1025;42.686;23.350;2023-02-28T04:27:28;35.03;;;21.57;;
2039;SDS011;1025;42.686;23.350;2023-02-28T04:29:55;28.50;;;19.50;;
2039;SDS011;1025;42.686;23.350;2023-02-28T04:32:22;39.10;;;20.73;;
2039;SDS011;1025;42.686;23.350;2023-02-28T04:34:48;36.00;;;21.13;;
2039;SDS011;1025;42.686;23.350;2023-02-28T04:37:15;31.50;;;20.77;;
2039;SDS011;1025;42.686;23.350;2023-02-28T04:39:42;29.47;;;20.33;;
2039;SDS011;1025;42.686;23.350;2023-02-28T04:42:09;36.20;;;23.07;;
2039;SDS011;1025;42.686;23.350;2023-02-28T04:44:36;34.77;;;21.70;;
2039;SDS011;1025;42.686;23.350;2023-02-28T04:47:05;30.00;;;19.77;;
2039;SDS011;1025;42.686;23.350;2023-02-28T04:49:31;35.80;;;20.63;;
2039;SDS011;1025;42.686;23.350;2023-02-28T04:51:58;27.93;;;18.40;;
2039;SDS011;1025;42.686;23.350;2023-02-28T04:54:24;41.30;;;22.73;;
2039;SDS011;1025;42.686;23.350;2023-02-28T04:56:51;52.03;;;22.07;;
2039;SDS011;1025;42.686;23.350;2023-02-28T04:59:17;35.10;;;23.60;;
2039;SDS011;1025;42.686;23.350;2023-02-28T05:01:45;48.90;;;24.17;;
2039;SDS011;1025;42.686;23.350;2023-02-28T05:04:13;42.93;;;22.63;;
2039;SDS011;1025;42.686;23.350;2023-02-28T05:06:40;52.67;;;23.37;;
2039;SDS011;1025;42.686;23.350;2023-02-28T05:09:07;42.33;;;25.30;;
2039;SDS011;1025;42.686;23.350;2023-02-28T05:11:36;46.63;;;23.70;;
2039;SDS011;1025;42.686;23.350;2023-02-28T05:14:04;42.47;;;26.47;;
2039;SDS011;1025;42.686;23.350;2023-02-28T05:16:31;43.80;;;25.37;;
2039;SDS011;1025;42.686;23.350;2023-02-28T05:18:58;38.70;;;25.30;;
2039;SDS011;1025;42.686;23.350;2023-02-28T05:21:30;49.53;;;27.70;;
2039;SDS011;1025;42.686;23.350;2023-02-28T05:23:57;44.53;;;28.37;;
2039;SDS011;1025;42.686;23.350;2023-02-28T05:26:24;42.73;;;25.47;;
2039;SDS011;1025;42.686;23.350;2023-02-28T05:28:50;42.20;;;23.97;;
2039;SDS011;1025;42.686;23.350;2023-02-28T05:31:17;33.00;;;24.33;;
2039;SDS011;1025;42.686;23.350;2023-02-28T05:33:44;49.80;;;30.73;;
2039;SDS011;1025;42.686;23.350;2023-02-28T05:36:11;45.27;;;29.90;;
2039;SDS011;1025;42.686;23.350;2023-02-28T05:38:39;51.87;;;34.10;;
2039;SDS011;1025;42.686;23.350;2023-02-28T05:41:06;53.07;;;31.10;;
2039;SDS011;1025;42.686;23.350;2023-02-28T05:43:33;52.03;;;32.53;;
2039;SDS011;1025;42.686;23.350;2023-02-28T05:46:01;47.87;;;28.47;;
2039;SDS011;1025;42.686;23.350;2023-02-28T05:48:28;49.37;;;31.90;;
2039;SDS011;1025;42.686;23.350;2023-02-28T05:50:56;47.03;;;27.83;;
2039;SDS011;1025;42.686;23.350;2023-02-28T05:53:23;47.20;;;28.63;;
2039;SDS011;1025;42.686;23.350;2023-02-28T05:55:51;45.47;;;27.97;;
2039;SDS011;1025;42.686;23.350;2023-02-28T05:58:17;47.37;;;29.80;;
2039;SDS011;1025;42.686;23.350;2023-02-28T06:00:44;50.10;;;30.73;;
2039;SDS011;1025;42.686;23.350;2023-02-28T06:03:11;48.33;;;28.93;;
2039;SDS011;1025;42.686;23.350;2023-02-28T06:05:37;46.17;;;28.97;;
2039;SDS011;1025;42.686;23.350;2023-02-28T06:08:04;51.17;;;30.23;;
2039;SDS011;1025;42.686;23.350;2023-02-28T06:10:32;48.17;;;29.97;;
2039;SDS011;1025;42.686;23.350;2023-02-28T06:13:00;45.57;;;26.93;;
2039;SDS011;1025;42.686;23.350;2023-02-28T06:15:28;38.10;;;27.13;;
2039;SDS011;1025;42.686;23.350;2023-02-28T06:17:55;41.60;;;26.53;;
2039;SDS011;1025;42.686;23.350;2023-02-28T06:20:22;41.00;;;27.30;;
2039;SDS011;1025;42.686;23.350;2023-02-28T06:22:49;47.47;;;27.43;;
2039;SDS011;1025;42.686;23.350;2023-02-28T06:25:16;39.93;;;26.87;;
2039;SDS011;1025;42.686;23.350;2023-02-28T06:27:43;37.70;;;25.17;;
2039;SDS011;1025;42.686;23.350;2023-02-28T06:30:12;43.03;;;28.43;;
2039;SDS011;1025;42.686;23.350;2023-02-28T06:32:38;46.13;;;28.23;;
2039;SDS011;1025;42.686;23.350;2023-02-28T06:35:05;36.73;;;27.70;;
2039;SDS011;1025;42.686;23.350;2023-02-28T06:37:32;37.40;;;26.43;;
2039;SDS011;1025;42.686;23.350;2023-02-28T06:39:58;49.10;;;32.40;;
2039;SDS011;1025;42.686;23.350;2023-02-28T06:42:25;43.33;;;29.87;;
2039;SDS011;1025;42.686;23.350;2023-02-28T06:44:54;52.10;;;31.00;;
2039;SDS011;1025;42.686;23.350;2023-02-28T06:47:22;44.90;;;29.50;;
2039;SDS011;1025;42.686;23.350;2023-02-28T06:49:48;37.63;;;25.60;;
2039;SDS011;1025;42.686;23.350;2023-02-28T06:52:15;34.57;;;24.60;;
2039;SDS011;1025;42.686;23.350;2023-02-28T06:54:42;39.03;;;27.37;;
2039;SDS011;1025;42.686;23.350;2023-02-28T06:57:08;37.57;;;23.83;;
2039;SDS011;1025;42.686;23.350;2023-02-28T06:59:35;38.40;;;27.20;;
2039;SDS011;1025;42.686;23.350;2023-02-28T07:02:02;40.10;;;27.00;;
2039;SDS011;1025;42.686;23.350;2023-02-28T07:04:30;34.80;;;24.97;;
2039;SDS011;1025;42.686;23.350;2023-02-28T07:06:56;27.83;;;22.87;;
2039;SDS011;1025;42.686;23.350;2023-02-28T07:09:23;29.23;;;20.73;;
2039;SDS011;1025;42.686;23.350;2023-02-28T07:11:54;28.03;;;19.80;;
2039;SDS011;1025;42.686;23.350;2023-02-28T07:14:21;29.37;;;22.20;;
2039;SDS011;1025;42.686;23.350;2023-02-28T07:16:47;29.00;;;24.33;;
2039;SDS011;1025;42.686;23.350;2023-02-28T07:19:15;31.20;;;23.20;;
2039;SDS011;1025;42.686;23.350;2023-02-28T07:21:43;32.43;;;24.47;;
2039;SDS011;1025;42.686;23.350;2023-02-28T07:24:10;33.17;;;25.20;;
2039;SDS011;1025;42.686;23.350;2023-02-28T07:26:36;37.73;;;28.07;;
2039;SDS011;1025;42.686;23.350;2023-02-28T07:29:03;37.30;;;26.17;;
2039;SDS011;1025;42.686;23.350;2023-02-28T07:31:29;39.50;;;28.50;;
2039;SDS011;1025;42.686;23.350;2023-02-28T07:33:56;37.63;;;28.77;;
2039;SDS011;1025;42.686;23.350;2023-02-28T07:36:22;31.77;;;25.80;;
2039;SDS011;1025;42.686;23.350;2023-02-28T07:38:50;40.50;;;27.70;;
2039;SDS011;1025;42.686;23.350;2023-02-28T07:41:18;41.47;;;29.80;;
2039;SDS011;1025;42.686;23.350;2023-02-28T07:43:45;42.93;;;28.60;;
2039;SDS011;1025;42.686;23.350;2023-02-28T07:46:13;33.17;;;26.10;;
2039;SDS011;1025;42.686;23.350;2023-02-28T07:48:41;40.17;;;27.40;;
2039;SDS011;1025;42.686;23.350;2023-02-28T07:51:07;39.93;;;30.43;;
2039;SDS011;1025;42.686;23.350;2023-02-28T07:53:34;35.83;;;26.50;;
2039;SDS011;1025;42.686;23.350;2023-02-28T07:56:02;39.60;;;26.67;;
2039;SDS011;1025;42.686;23.350;2023-02-28T07:58:29;38.00;;;28.33;;
2039;SDS011;1025;42.686;23.350;2023-02-28T08:00:56;33.60;;;25.83;;
2039;SDS011;1025;42.686;23.350;2023-02-28T08:03:23;37.17;;;29.10;;
2039;SDS011;1025;42.686;23.350;2023-02-28T08:05:50;33.60;;;25.57;;
2039;SDS011;1025;42.686;23.350;2023-02-28T08:08:17;33.00;;;25.20;;
2039;SDS011;1025;42.686;23.350;2023-02-28T08:10:44;38.53;;;26.63;;
2039;SDS011;1025;42.686;23.350;2023-02-28T08:13:12;36.97;;;24.00;;
2039;SDS011;1025;42.686;23.350;2023-02-28T08:15:40;31.63;;;25.10;;
2039;SDS011;1025;42.686;23.350;2023-02-28T08:18:06;33.20;;;25.33;;
2039;SDS011;1025;42.686;23.350;2023-02-28T08:20:33;33.30;;;25.07;;
2039;SDS011;1025;42.686;23.350;2023-02-28T08:22:59;35.07;;;25.07;;
2039;SDS011;1025;42.686;23.350;2023-02-28T08:25:26;35.00;;;25.90;;
2039;SDS011;1025;42.686;23.350;2023-02-28T08:27:52;31.50;;;23.67;;
2039;SDS011;1025;42.686;23.350;2023-02-28T08:30:20;49.27;;;27.27;;
2039;SDS011;1025;42.686;23.350;2023-02-28T08:32:47;30.90;;;25.30;;
2039;SDS011;1025;42.686;23.350;2023-02-28T08:35:14;38.27;;;26.93;;
2039;SDS011;1025;42.686;23.350;2023-02-28T08:37:40;32.40;;;24.90;;
2039;SDS011;1025;42.686;23.350;2023-02-28T08:40:07;35.40;;;27.20;;
2039;SDS011;1025;42.686;23.350;2023-02-28T08:42:34;48.87;;;32.83;;
2039;SDS011;1025;42.686;23.350;2023-02-28T08:45:01;46.00;;;30.57;;
2039;SDS011;1025;42.686;23.350;2023-02-28T08:47:29;40.63;;;29.50;;
2039;SDS011;1025;42.686;23.350;2023-02-28T08:49:55;33.67;;;26.13;;
2039;SDS011;1025;42.686;23.350;2023-02-28T08:52:22;45.23;;;25.00;;
2039;SDS011;1025;42.686;23.350;2023-02-28T08:54:48;23.53;;;18.20;;
2039;SDS011;1025;42.686;23.350;2023-02-28T08:57:15;23.47;;;14.90;;
2039;SDS011;1025;42.686;23.350;2023-02-28T08:59:41;17.10;;;14.27;;
2039;SDS011;1025;42.686;23.350;2023-02-28T09:02:08;18.83;;;14.50;;
2039;SDS011;1025;42.686;23.350;2023-02-28T09:04:37;20.00;;;13.70;;
2039;SDS011;1025;42.686;23.350;2023-02-28T09:07:04;24.17;;;16.30;;
2039;SDS011;1025;42.686;23.350;2023-02-28T09:09:30;23.37;;;13.90;;
2039;SDS011;1025;42.686;23.350;2023-02-28T09:11:57;21.33;;;15.40;;
2039;SDS011;1025;42.686;23.350;2023-02-28T09:14:23;22.67;;;14.50;;
2039;SDS011;1025;42.686;23.350;2023-02-28T09:16:50;16.93;;;13.97;;
2039;SDS011;1025;42.686;23.350;2023-02-28T09:19:16;17.33;;;13.30;;
2039;SDS011;1025;42.686;23.350;2023-02-28T09:21:44;18.33;;;13.87;;
2039;SDS011;1025;42.686;23.350;2023-02-28T09:24:11;25.70;;;14.87;;
2039;SDS011;1025;42.686;23.350;2023-02-28T09:26:39;16.17;;;11.90;;
2039;SDS011;1025;42.686;23.350;2023-02-28T09:29:06;15.40;;;12.10;;
2039;SDS011;1025;42.686;23.350;2023-02-28T09:31:32;12.63;;;11.00;;
2039;SDS011;1025;42.686;23.350;2023-02-28T09:33:59;24.50;;;14.83;;
2039;SDS011;1025;42.686;23.350;2023-02-28T09:36:26;13.03;;;10.57;;
2039;SDS011;1025;42.686;23.350;2023-02-28T09:38:55;14.33;;;10.93;;
2039;SDS011;1025;42.686;23.350;2023-02-28T09:41:23;18.63;;;14.60;;
2039;SDS011;1025;42.686;23.350;2023-02-28T09:43:51;15.77;;;10.03;;
2039;SDS011;1025;42.686;23.350;2023-02-28T09:46:24;19.57;;;14.27;;
2039;SDS011;1025;42.686;23.350;2023-02-28T09:48:51;21.23;;;12.00;;
2039;SDS011;1025;42.686;23.350;2023-02-28T09:51:28;15.67;;;13.90;;
2039;SDS011;1025;42.686;23.350;2023-02-28T09:53:57;13.23;;;10.60;;
2039;SDS011;1025;42.686;23.350;2023-02-28T09:56:25;18.73;;;11.93;;
2039;SDS011;1025;42.686;23.350;2023-02-28T09:58:54;20.20;;;12.10;;
2039;SDS011;1025;42.686;23.350;2023-02-28T10:01:24;18.70;;;12.67;;
2039;SDS011;1025;42.686;23.350;2023-02-28T10:03:55;28.60;;;14.53;;
2039;SDS011;1025;42.686;23.350;2023-02-28T10:06:23;12.83;;;10.23;;
2039;SDS011;1025;42.686;23.350;2023-02-28T10:08:54;22.70;;;12.60;;
2039;SDS011;1025;42.686;23.350;2023-02-28T10:11:24;20.33;;;11.77;;
2039;SDS011;1025;42.686;23.350;2023-02-28T10:13:52;18.40;;;10.60;;
2039;SDS011;1025;42.686;23.350;2023-02-28T10:16:22;15.67;;;10.10;;
2039;SDS011;1025;42.686;23.350;2023-02-28T10:18:51;13.93;;;10.40;;
2039;SDS011;1025;42.686;23.350;2023-02-28T10:21:20;16.20;;;12.67;;
2039;SDS011;1025;42.686;23.350;2023-02-28T10:26:51;13.27;;;9.37;;
2039;SDS011;1025;42.686;23.350;2023-02-28T10:29:18;14.90;;;11.07;;
2039;SDS011;1025;42.686;23.350;2023-02-28T10:31:45;12.20;;;7.57;;
2039;SDS011;1025;42.686;23.350;2023-02-28T10:34:12;14.40;;;11.30;;
2039;SDS011;1025;42.686;23.350;2023-02-28T10:36:39;10.90;;;7.80;;
2039;SDS011;1025;42.686;23.350;2023-02-28T10:41:49;18.57;;;10.70;;
2039;SDS011;1025;42.686;23.350;2023-02-28T10:44:20;15.27;;;11.17;;
2039;SDS011;1025;42.686;23.350;2023-02-28T10:46:47;22.93;;;11.70;;
2039;SDS011;1025;42.686;23.350;2023-02-28T10:49:15;13.23;;;9.57;;
2039;SDS011;1025;42.686;23.350;2023-02-28T10:51:43;15.00;;;10.00;;
2039;SDS011;1025;42.686;23.350;2023-02-28T10:54:16;25.43;;;9.90;;
2039;SDS011;1025;42.686;23.350;2023-02-28T10:56:44;14.50;;;10.60;;
2039;SDS011;1025;42.686;23.350;2023-02-28T10:59:28;17.57;;;10.20;;
2039;SDS011;1025;42.686;23.350;2023-02-28T11:01:54;10.27;;;8.37;;
2039;SDS011;1025;42.686;23.350;2023-02-28T11:04:32;11.57;;;7.67;;
2039;SDS011;1025;42.686;23.350;2023-02-28T11:07:01;11.07;;;9.40;;
2039;SDS011;1025;42.686;23.350;2023-02-28T11:09:28;20.47;;;12.60;;
2039;SDS011;1025;42.686;23.350;2023-02-28T11:11:56;11.07;;;9.97;;
2039;SDS011;1025;42.686;23.350;2023-02-28T11:14:24;17.73;;;11.03;;
2039;SDS011;1025;42.686;23.350;2023-02-28T11:16:52;16.80;;;10.50;;
2039;SDS011;1025;42.686;23.350;2023-02-28T11:19:22;19.47;;;10.90;;
2039;SDS011;1025;42.686;23.350;2023-02-28T11:21:52;14.53;;;11.03;;
2039;SDS011;1025;42.686;23.350;2023-02-28T11:24:21;12.97;;;10.20;;
2039;SDS011;1025;42.686;23.350;2023-02-28T11:26:48;18.83;;;10.70;;
2039;SDS011;1025;42.686;23.350;2023-02-28T11:29:19;14.93;;;11.07;;
2039;SDS011;1025;42.686;23.350;2023-02-28T11:34:38;23.97;;;12.73;;
2039;SDS011;1025;42.686;23.350;2023-02-28T11:37:08;12.03;;;10.23;;
2039;SDS011;1025;42.686;23.350;2023-02-28T11:39:37;13.87;;;9.47;;
2039;SDS011;1025;42.686;23.350;2023-02-28T11:44:51;29.47;;;13.00;;
2039;SDS011;1025;42.686;23.350;2023-02-28T11:47:22;24.30;;;10.90;;
2039;SDS011;1025;42.686;23.350;2023-02-28T11:49:54;13.20;;;9.83;;
2039;SDS011;1025;42.686;23.350;2023-02-28T11:52:26;18.30;;;10.60;;
2039;SDS011;1025;42.686;23.350;2023-02-28T11:55:02;14.33;;;10.30;;
2039;SDS011;1025;42.686;23.350;2023-02-28T11:57:42;18.07;;;11.83;;
2039;SDS011;1025;42.686;23.350;2023-02-28T12:00:19;16.03;;;10.80;;
2039;SDS011;1025;42.686;23.350;2023-02-28T12:02:54;13.80;;;11.60;;
2039;SDS011;1025;42.686;23.350;2023-02-28T12:05:29;14.80;;;10.63;;
2039;SDS011;1025;42.686;23.350;2023-02-28T12:08:09;14.07;;;8.07;;
2039;SDS011;1025;42.686;23.350;2023-02-28T12:10:42;15.13;;;10.80;;
2039;SDS011;1025;42.686;23.350;2023-02-28T12:13:13;17.10;;;12.90;;
2039;SDS011;1025;42.686;23.350;2023-02-28T12:18:37;13.47;;;9.40;;
2039;SDS011;1025;42.686;23.350;2023-02-28T12:21:11;14.63;;;10.53;;
2039;SDS011;1025;42.686;23.350;2023-02-28T12:23:47;13.13;;;10.17;;
2039;SDS011;1025;42.686;23.350;2023-02-28T12:26:15;14.57;;;11.07;;
2039;SDS011;1025;42.686;23.350;2023-02-28T12:28:46;19.60;;;12.37;;
2039;SDS011;1025;42.686;23.350;2023-02-28T12:31:15;13.93;;;10.80;;
2039;SDS011;1025;42.686;23.350;2023-02-28T12:33:43;20.23;;;12.70;;
2039;SDS011;1025;42.686;23.350;2023-02-28T12:36:13;19.50;;;12.23;;
2039;SDS011;1025;42.686;23.350;2023-02-28T12:38:43;17.73;;;11.03;;
2039;SDS011;1025;42.686;23.350;2023-02-28T12:41:11;16.60;;;11.00;;
2039;SDS011;1025;42.686;23.350;2023-02-28T12:43:40;14.23;;;8.23;;
2039;SDS011;1025;42.686;23.350;2023-02-28T12:46:09;13.57;;;8.47;;
2039;SDS011;1025;42.686;23.350;2023-02-28T12:48:37;11.33;;;7.23;;
2039;SDS011;1025;42.686;23.350;2023-02-28T12:51:05;13.57;;;10.37;;
2039;SDS011;1025;42.686;23.350;2023-02-28T12:53:35;14.57;;;9.30;;
2039;SDS011;1025;42.686;23.350;2023-02-28T12:56:08;11.67;;;8.60;;
2039;SDS011;1025;42.686;23.350;2023-02-28T12:58:37;14.87;;;11.10;;
2039;SDS011;1025;42.686;23.350;2023-02-28T13:01:15;19.77;;;11.30;;
2039;SDS011;1025;42.686;23.350;2023-02-28T13:04:11;11.17;;;7.67;;
2039;SDS011;1025;42.686;23.350;2023-02-28T13:06:45;26.30;;;10.70;;
2039;SDS011;1025;42.686;23.350;2023-02-28T13:09:21;14.13;;;7.80;;
2039;SDS011;1025;42.686;23.350;2023-02-28T13:11:48;12.87;;;9.87;;
2039;SDS011;1025;42.686;23.350;2023-02-28T13:14:20;14.30;;;10.53;;
2039;SDS011;1025;42.686;23.350;2023-02-28T13:19:36;13.93;;;9.50;;
2039;SDS011;1025;42.686;23.350;2023-02-28T13:22:04;13.60;;;9.07;;
2039;SDS011;1025;42.686;23.350;2023-02-28T13:24:40;17.50;;;12.40;;
2039;SDS011;1025;42.686;23.350;2023-02-28T13:29:51;15.40;;;10.80;;
2039;SDS011;1025;42.686;23.350;2023-02-28T13:32:18;18.77;;;11.90;;
2039;SDS011;1025;42.686;23.350;2023-02-28T13:34:47;25.23;;;11.53;;
2039;SDS011;1025;42.686;23.350;2023-02-28T13:37:34;13.27;;;10.80;;
2039;SDS011;1025;42.686;23.350;2023-02-28T13:42:49;14.60;;;10.03;;
2039;SDS011;1025;42.686;23.350;2023-02-28T13:45:21;13.77;;;9.50;;
2039;SDS011;1025;42.686;23.350;2023-02-28T13:47:52;15.50;;;10.20;;
2039;SDS011;1025;42.686;23.350;2023-02-28T13:50:23;17.53;;;10.80;;
2039;SDS011;1025;42.686;23.350;2023-02-28T13:52:53;15.60;;;10.63;;
2039;SDS011;1025;42.686;23.350;2023-02-28T13:55:24;14.60;;;10.63;;
2039;SDS011;1025;42.686;23.350;2023-02-28T13:57:59;15.23;;;11.03;;
2039;SDS011;1025;42.686;23.350;2023-02-28T14:00:35;21.10;;;11.10;;
2039;SDS011;1025;42.686;23.350;2023-02-28T14:03:20;15.87;;;9.87;;
2039;SDS011;1025;42.686;23.350;2023-02-28T14:08:31;16.93;;;10.63;;
2039;SDS011;1025;42.686;23.350;2023-02-28T14:11:02;9.87;;;8.80;;
2039;SDS011;1025;42.686;23.350;2023-02-28T14:13:43;18.33;;;11.87;;
2039;SDS011;1025;42.686;23.350;2023-02-28T14:16:11;15.00;;;10.80;;
2039;SDS011;1025;42.686;23.350;2023-02-28T14:18:40;15.83;;;9.97;;
2039;SDS011;1025;42.686;23.350;2023-02-28T14:21:12;18.10;;;10.30;;
2039;SDS011;1025;42.686;23.350;2023-02-28T14:29:21;15.17;;;9.87;;
2039;SDS011;1025;42.686;23.350;2023-02-28T14:31:52;16.33;;;10.07;;
2039;SDS011;1025;42.686;23.350;2023-02-28T14:34:25;17.00;;;10.60;;
2039;SDS011;1025;42.686;23.350;2023-02-28T14:36:55;24.83;;;11.10;;
2039;SDS011;1025;42.686;23.350;2023-02-28T14:39:25;15.50;;;10.10;;
2039;SDS011;1025;42.686;23.350;2023-02-28T14:41:52;17.30;;;9.57;;
2039;SDS011;1025;42.686;23.350;2023-02-28T14:44:20;11.23;;;9.57;;
2039;SDS011;1025;42.686;23.350;2023-02-28T14:46:49;12.00;;;8.63;;
2039;SDS011;1025;42.686;23.350;2023-02-28T14:49:17;10.83;;;8.60;;
2039;SDS011;1025;42.686;23.350;2023-02-28T14:51:44;12.37;;;9.70;;
2039;SDS011;1025;42.686;23.350;2023-02-28T14:54:13;12.70;;;9.00;;
2039;SDS011;1025;42.686;23.350;2023-02-28T14:56:40;16.60;;;9.57;;
2039;SDS011;1025;42.686;23.350;2023-02-28T14:59:21;14.80;;;9.10;;
2039;SDS011;1025;42.686;23.350;2023-02-28T15:01:50;13.53;;;10.17;;
2039;SDS011;1025;42.686;23.350;2023-02-28T15:04:18;17.00;;;11.43;;
2039;SDS011;1025;42.686;23.350;2023-02-28T15:09:28;17.70;;;9.03;;
2039;SDS011;1025;42.686;23.350;2023-02-28T15:11:55;14.33;;;10.17;;
2039;SDS011;1025;42.686;23.350;2023-02-28T15:14:22;16.17;;;9.93;;
2039;SDS011;1025;42.686;23.350;2023-02-28T15:16:51;17.67;;;9.70;;
2039;SDS011;1025;42.686;23.350;2023-02-28T15:19:26;14.60;;;9.26;;
2039;SDS011;1025;42.686;23.350;2023-02-28T15:21:55;13.27;;;9.30;;
2039;SDS011;1025;42.686;23.350;2023-02-28T15:24:26;11.73;;;9.57;;
2039;SDS011;1025;42.686;23.350;2023-02-28T15:26:57;8.90;;;7.30;;
2039;SDS011;1025;42.686;23.350;2023-02-28T15:29:25;17.13;;;10.40;;